sensor_id;sensor_type;location;lat;lon;timestamp;P1;durP1;ratioP1;P2;durP2;ratioP2
7179;SDS011;3631;42.152;24.756;2023-08-31T00:02:28;8.38;;;4.25;;
7179;SDS011;3631;42.152;24.756;2023-08-31T00:05:43;4.93;;;4.20;;
7179;SDS011;3631;42.152;24.756;2023-08-31T00:08:51;6.47;;;4.30;;
7179;SDS011;3631;42.152;24.756;2023-08-31T00:12:06;5.18;;;4.68;;
7179;SDS011;3631;42.152;24.756;2023-08-31T00:15:05;4.82;;;4.43;;
7179;SDS011;3631;42.152;24.756;2023-08-31T00:18:08;6.15;;;4.30;;
7179;SDS011;3631;42.152;24.756;2023-08-31T00:21:03;7.28;;;4.13;;
7179;SDS011;3631;42.152;24.756;2023-08-31T00:23:34;5.45;;;4.60;;
7179;SDS011;3631;42.152;24.756;2023-08-31T00:26:06;5.63;;;3.95;;
7179;SDS011;3631;42.152;24.756;2023-08-31T00:28:50;4.30;;;4.00;;
7179;SDS011;3631;42.152;24.756;2023-08-31T00:32:11;5.05;;;4.63;;
7179;SDS011;3631;42.152;24.756;2023-08-31T00:35:10;5.93;;;4.57;;
7179;SDS011;3631;42.152;24.756;2023-08-31T00:38:07;5.40;;;4.50;;
7179;SDS011;3631;42.152;24.756;2023-08-31T00:44:09;6.05;;;5.05;;
7179;SDS011;3631;42.152;24.756;2023-08-31T00:50:18;5.00;;;4.60;;
7179;SDS011;3631;42.152;24.756;2023-08-31T00:53:07;7.07;;;4.28;;
7179;SDS011;3631;42.152;24.756;2023-08-31T00:56:12;5.35;;;4.32;;
7179;SDS011;3631;42.152;24.756;2023-08-31T01:02:40;5.88;;;3.75;;
7179;SDS011;3631;42.152;24.756;2023-08-31T01:05:50;5.28;;;4.22;;
7179;SDS011;3631;42.152;24.756;2023-08-31T01:09:02;4.72;;;4.18;;
7179;SDS011;3631;42.152;24.756;2023-08-31T01:12:07;6.97;;;3.97;;
7179;SDS011;3631;42.152;24.756;2023-08-31T01:15:10;4.43;;;3.92;;
7179;SDS011;3631;42.152;24.756;2023-08-31T01:25:22;4.78;;;4.30;;
7179;SDS011;3631;42.152;24.756;2023-08-31T01:28:34;4.78;;;3.58;;
7179;SDS011;3631;42.152;24.756;2023-08-31T01:32:01;7.20;;;3.95;;
7179;SDS011;3631;42.152;24.756;2023-08-31T01:35:10;4.72;;;3.80;;
7179;SDS011;3631;42.152;24.756;2023-08-31T01:38:02;4.82;;;3.47;;
7179;SDS011;3631;42.152;24.756;2023-08-31T01:41:22;4.30;;;3.53;;
7179;SDS011;3631;42.152;24.756;2023-08-31T01:44:27;3.75;;;3.45;;
7179;SDS011;3631;42.152;24.756;2023-08-31T01:47:13;6.22;;;3.58;;
7179;SDS011;3631;42.152;24.756;2023-08-31T01:50:29;4.95;;;3.65;;
7179;SDS011;3631;42.152;24.756;2023-08-31T01:53:35;5.13;;;3.30;;
7179;SDS011;3631;42.152;24.756;2023-08-31T01:56:38;6.40;;;3.38;;
7179;SDS011;3631;42.152;24.756;2023-08-31T01:59:40;5.25;;;3.45;;
7179;SDS011;3631;42.152;24.756;2023-08-31T02:02:40;3.42;;;3.00;;
7179;SDS011;3631;42.152;24.756;2023-08-31T02:05:38;4.28;;;3.90;;
7179;SDS011;3631;42.152;24.756;2023-08-31T02:08:30;4.57;;;4.18;;
7179;SDS011;3631;42.152;24.756;2023-08-31T02:11:28;4.05;;;3.58;;
7179;SDS011;3631;42.152;24.756;2023-08-31T02:18:11;4.43;;;4.03;;
7179;SDS011;3631;42.152;24.756;2023-08-31T02:21:07;6.10;;;3.80;;
7179;SDS011;3631;42.152;24.756;2023-08-31T02:24:12;4.45;;;3.88;;
7179;SDS011;3631;42.152;24.756;2023-08-31T02:27:30;4.78;;;3.45;;
7179;SDS011;3631;42.152;24.756;2023-08-31T02:31:00;4.18;;;3.78;;
7179;SDS011;3631;42.152;24.756;2023-08-31T02:34:04;7.53;;;3.95;;
7179;SDS011;3631;42.152;24.756;2023-08-31T02:37:01;7.38;;;3.75;;
7179;SDS011;3631;42.152;24.756;2023-08-31T02:39:56;7.22;;;3.80;;
7179;SDS011;3631;42.152;24.756;2023-08-31T02:42:54;5.07;;;3.75;;
7179;SDS011;3631;42.152;24.756;2023-08-31T02:45:48;5.75;;;3.88;;
7179;SDS011;3631;42.152;24.756;2023-08-31T02:52:19;4.88;;;3.90;;
7179;SDS011;3631;42.152;24.756;2023-08-31T02:55:05;5.15;;;3.80;;
7179;SDS011;3631;42.152;24.756;2023-08-31T02:58:11;5.40;;;3.63;;
7179;SDS011;3631;42.152;24.756;2023-08-31T03:00:42;4.03;;;3.67;;
7179;SDS011;3631;42.152;24.756;2023-08-31T03:03:21;7.10;;;4.00;;
7179;SDS011;3631;42.152;24.756;2023-08-31T03:06:09;5.47;;;3.88;;
7179;SDS011;3631;42.152;24.756;2023-08-31T03:09:00;4.78;;;3.75;;
7179;SDS011;3631;42.152;24.756;2023-08-31T03:11:36;4.50;;;3.42;;
7179;SDS011;3631;42.152;24.756;2023-08-31T03:14:04;4.60;;;3.50;;
7179;SDS011;3631;42.152;24.756;2023-08-31T03:16:37;4.63;;;4.10;;
7179;SDS011;3631;42.152;24.756;2023-08-31T03:19:06;5.40;;;3.67;;
7179;SDS011;3631;42.152;24.756;2023-08-31T03:21:38;4.68;;;3.63;;
7179;SDS011;3631;42.152;24.756;2023-08-31T03:24:17;4.97;;;3.92;;
7179;SDS011;3631;42.152;24.756;2023-08-31T03:26:48;4.72;;;4.07;;
7179;SDS011;3631;42.152;24.756;2023-08-31T03:29:26;3.90;;;3.50;;
7179;SDS011;3631;42.152;24.756;2023-08-31T03:32:04;6.10;;;4.00;;
7179;SDS011;3631;42.152;24.756;2023-08-31T03:34:32;5.07;;;3.72;;
7179;SDS011;3631;42.152;24.756;2023-08-31T03:37:05;6.63;;;4.07;;
7179;SDS011;3631;42.152;24.756;2023-08-31T03:39:38;4.75;;;4.32;;
7179;SDS011;3631;42.152;24.756;2023-08-31T03:42:39;4.70;;;4.25;;
7179;SDS011;3631;42.152;24.756;2023-08-31T03:45:20;5.30;;;3.83;;
7179;SDS011;3631;42.152;24.756;2023-08-31T03:48:03;5.53;;;4.38;;
7179;SDS011;3631;42.152;24.756;2023-08-31T03:50:40;5.15;;;4.00;;
7179;SDS011;3631;42.152;24.756;2023-08-31T03:53:42;12.02;;;4.35;;
7179;SDS011;3631;42.152;24.756;2023-08-31T03:56:24;4.78;;;4.28;;
7179;SDS011;3631;42.152;24.756;2023-08-31T03:59:08;6.65;;;4.22;;
7179;SDS011;3631;42.152;24.756;2023-08-31T04:01:48;5.28;;;3.97;;
7179;SDS011;3631;42.152;24.756;2023-08-31T04:04:22;4.53;;;3.85;;
7179;SDS011;3631;42.152;24.756;2023-08-31T04:16:44;7.43;;;3.72;;
7179;SDS011;3631;42.152;24.756;2023-08-31T04:19:53;7.57;;;4.00;;
7179;SDS011;3631;42.152;24.756;2023-08-31T04:22:38;6.15;;;4.03;;
7179;SDS011;3631;42.152;24.756;2023-08-31T04:25:24;6.32;;;4.47;;
7179;SDS011;3631;42.152;24.756;2023-08-31T04:28:14;6.85;;;3.90;;
7179;SDS011;3631;42.152;24.756;2023-08-31T04:34:23;7.20;;;4.20;;
7179;SDS011;3631;42.152;24.756;2023-08-31T04:39:51;6.75;;;4.00;;
7179;SDS011;3631;42.152;24.756;2023-08-31T04:42:28;9.48;;;4.10;;
7179;SDS011;3631;42.152;24.756;2023-08-31T04:45:29;4.40;;;3.92;;
7179;SDS011;3631;42.152;24.756;2023-08-31T04:48:49;9.85;;;4.38;;
7179;SDS011;3631;42.152;24.756;2023-08-31T04:52:22;9.52;;;4.60;;
7179;SDS011;3631;42.152;24.756;2023-08-31T04:55:12;9.65;;;4.10;;
7179;SDS011;3631;42.152;24.756;2023-08-31T04:58:09;5.32;;;3.97;;
7179;SDS011;3631;42.152;24.756;2023-08-31T05:01:04;8.82;;;5.00;;
7179;SDS011;3631;42.152;24.756;2023-08-31T05:04:05;9.25;;;4.20;;
7179;SDS011;3631;42.152;24.756;2023-08-31T05:06:45;12.35;;;5.10;;
7179;SDS011;3631;42.152;24.756;2023-08-31T05:09:39;8.02;;;4.45;;
7179;SDS011;3631;42.152;24.756;2023-08-31T05:12:19;7.55;;;4.55;;
7179;SDS011;3631;42.152;24.756;2023-08-31T05:14:51;8.85;;;4.80;;
7179;SDS011;3631;42.152;24.756;2023-08-31T05:18:04;5.57;;;4.80;;
7179;SDS011;3631;42.152;24.756;2023-08-31T05:20:55;9.38;;;4.45;;
7179;SDS011;3631;42.152;24.756;2023-08-31T05:23:39;8.90;;;4.95;;
7179;SDS011;3631;42.152;24.756;2023-08-31T05:26:34;10.50;;;4.88;;
7179;SDS011;3631;42.152;24.756;2023-08-31T05:29:14;13.48;;;5.38;;
7179;SDS011;3631;42.152;24.756;2023-08-31T05:32:05;12.82;;;5.20;;
7179;SDS011;3631;42.152;24.756;2023-08-31T05:34:57;6.93;;;4.10;;
7179;SDS011;3631;42.152;24.756;2023-08-31T05:37:35;7.75;;;4.10;;
7179;SDS011;3631;42.152;24.756;2023-08-31T05:40:21;7.07;;;4.00;;
7179;SDS011;3631;42.152;24.756;2023-08-31T05:43:11;8.60;;;4.50;;
7179;SDS011;3631;42.152;24.756;2023-08-31T05:46:07;11.50;;;6.70;;
7179;SDS011;3631;42.152;24.756;2023-08-31T05:49:07;10.65;;;9.60;;
7179;SDS011;3631;42.152;24.756;2023-08-31T05:55:38;8.32;;;6.80;;
7179;SDS011;3631;42.152;24.756;2023-08-31T05:58:32;13.30;;;9.70;;
7179;SDS011;3631;42.152;24.756;2023-08-31T06:01:02;6.38;;;4.63;;
7179;SDS011;3631;42.152;24.756;2023-08-31T06:03:34;6.90;;;6.22;;
7179;SDS011;3631;42.152;24.756;2023-08-31T06:06:04;12.32;;;10.95;;
7179;SDS011;3631;42.152;24.756;2023-08-31T06:08:36;5.95;;;5.15;;
7179;SDS011;3631;42.152;24.756;2023-08-31T06:11:05;15.60;;;9.90;;
7179;SDS011;3631;42.152;24.756;2023-08-31T06:13:34;8.00;;;5.80;;
7179;SDS011;3631;42.152;24.756;2023-08-31T06:16:03;6.45;;;3.63;;
7179;SDS011;3631;42.152;24.756;2023-08-31T06:18:32;16.42;;;4.50;;
7179;SDS011;3631;42.152;24.756;2023-08-31T06:21:02;8.27;;;3.97;;
7179;SDS011;3631;42.152;24.756;2023-08-31T06:23:31;6.82;;;3.70;;
7179;SDS011;3631;42.152;24.756;2023-08-31T06:26:03;7.80;;;5.13;;
7179;SDS011;3631;42.152;24.756;2023-08-31T06:28:35;4.97;;;3.28;;
7179;SDS011;3631;42.152;24.756;2023-08-31T06:31:10;5.53;;;3.95;;
7179;SDS011;3631;42.152;24.756;2023-08-31T06:33:43;8.23;;;3.67;;
7179;SDS011;3631;42.152;24.756;2023-08-31T06:36:15;5.97;;;2.92;;
7179;SDS011;3631;42.152;24.756;2023-08-31T06:38:53;3.60;;;3.28;;
7179;SDS011;3631;42.152;24.756;2023-08-31T06:41:27;8.25;;;4.00;;
7179;SDS011;3631;42.152;24.756;2023-08-31T06:44:01;10.73;;;3.88;;
7179;SDS011;3631;42.152;24.756;2023-08-31T06:46:33;18.40;;;3.85;;
7179;SDS011;3631;42.152;24.756;2023-08-31T06:49:04;10.07;;;4.40;;
7179;SDS011;3631;42.152;24.756;2023-08-31T06:51:36;6.88;;;3.30;;
7179;SDS011;3631;42.152;24.756;2023-08-31T06:54:07;3.40;;;3.10;;
7179;SDS011;3631;42.152;24.756;2023-08-31T06:56:38;6.63;;;2.80;;
7179;SDS011;3631;42.152;24.756;2023-08-31T06:59:07;4.25;;;2.83;;
7179;SDS011;3631;42.152;24.756;2023-08-31T07:01:37;4.00;;;3.40;;
7179;SDS011;3631;42.152;24.756;2023-08-31T07:04:06;5.93;;;3.20;;
7179;SDS011;3631;42.152;24.756;2023-08-31T07:06:35;7.95;;;4.75;;
7179;SDS011;3631;42.152;24.756;2023-08-31T07:09:06;8.30;;;3.20;;
7179;SDS011;3631;42.152;24.756;2023-08-31T07:11:35;4.90;;;3.33;;
7179;SDS011;3631;42.152;24.756;2023-08-31T07:14:05;4.65;;;3.00;;
7179;SDS011;3631;42.152;24.756;2023-08-31T07:16:34;14.50;;;4.35;;
7179;SDS011;3631;42.152;24.756;2023-08-31T07:19:05;5.53;;;4.38;;
7179;SDS011;3631;42.152;24.756;2023-08-31T07:21:33;9.63;;;4.75;;
7179;SDS011;3631;42.152;24.756;2023-08-31T07:24:04;5.43;;;4.25;;
7179;SDS011;3631;42.152;24.756;2023-08-31T07:26:38;7.30;;;3.95;;
7179;SDS011;3631;42.152;24.756;2023-08-31T07:29:08;7.20;;;4.03;;
7179;SDS011;3631;42.152;24.756;2023-08-31T07:31:37;4.88;;;3.88;;
7179;SDS011;3631;42.152;24.756;2023-08-31T07:34:07;5.43;;;4.10;;
7179;SDS011;3631;42.152;24.756;2023-08-31T07:36:36;6.07;;;3.25;;
7179;SDS011;3631;42.152;24.756;2023-08-31T07:39:11;5.05;;;2.90;;
7179;SDS011;3631;42.152;24.756;2023-08-31T07:41:43;7.38;;;3.00;;
7179;SDS011;3631;42.152;24.756;2023-08-31T07:44:13;2.55;;;2.30;;
7179;SDS011;3631;42.152;24.756;2023-08-31T07:46:50;7.97;;;2.85;;
7179;SDS011;3631;42.152;24.756;2023-08-31T07:49:20;4.78;;;2.80;;
7179;SDS011;3631;42.152;24.756;2023-08-31T07:51:50;3.17;;;2.88;;
7179;SDS011;3631;42.152;24.756;2023-08-31T07:54:22;8.18;;;3.35;;
7179;SDS011;3631;42.152;24.756;2023-08-31T07:56:52;6.85;;;3.35;;
7179;SDS011;3631;42.152;24.756;2023-08-31T07:59:22;8.50;;;3.17;;
7179;SDS011;3631;42.152;24.756;2023-08-31T08:01:54;13.75;;;3.00;;
7179;SDS011;3631;42.152;24.756;2023-08-31T08:04:23;10.98;;;3.45;;
7179;SDS011;3631;42.152;24.756;2023-08-31T08:06:53;2.92;;;2.65;;
7179;SDS011;3631;42.152;24.756;2023-08-31T08:09:26;7.80;;;3.47;;
7179;SDS011;3631;42.152;24.756;2023-08-31T08:11:58;5.07;;;2.90;;
7179;SDS011;3631;42.152;24.756;2023-08-31T08:14:28;5.82;;;3.15;;
7179;SDS011;3631;42.152;24.756;2023-08-31T08:16:57;6.32;;;2.85;;
7179;SDS011;3631;42.152;24.756;2023-08-31T08:19:27;7.65;;;3.05;;
7179;SDS011;3631;42.152;24.756;2023-08-31T08:21:59;5.85;;;2.55;;
7179;SDS011;3631;42.152;24.756;2023-08-31T08:24:31;4.10;;;2.60;;
7179;SDS011;3631;42.152;24.756;2023-08-31T08:26:59;10.48;;;2.13;;
7179;SDS011;3631;42.152;24.756;2023-08-31T08:29:30;6.03;;;2.67;;
7179;SDS011;3631;42.152;24.756;2023-08-31T08:32:01;6.10;;;2.28;;
7179;SDS011;3631;42.152;24.756;2023-08-31T08:34:35;4.47;;;2.20;;
7179;SDS011;3631;42.152;24.756;2023-08-31T08:37:11;2.80;;;2.17;;
7179;SDS011;3631;42.152;24.756;2023-08-31T08:39:47;3.22;;;2.90;;
7179;SDS011;3631;42.152;24.756;2023-08-31T08:42:20;7.45;;;6.53;;
7179;SDS011;3631;42.152;24.756;2023-08-31T08:48:40;4.60;;;3.08;;
7179;SDS011;3631;42.152;24.756;2023-08-31T08:51:43;9.98;;;6.22;;
7179;SDS011;3631;42.152;24.756;2023-08-31T08:58:00;5.40;;;4.07;;
7179;SDS011;3631;42.152;24.756;2023-08-31T09:00:39;3.45;;;3.08;;
7179;SDS011;3631;42.152;24.756;2023-08-31T09:03:25;3.38;;;2.88;;
7179;SDS011;3631;42.152;24.756;2023-08-31T09:06:35;2.92;;;2.20;;
7179;SDS011;3631;42.152;24.756;2023-08-31T09:09:12;5.25;;;2.88;;
7179;SDS011;3631;42.152;24.756;2023-08-31T09:11:45;4.25;;;2.83;;
7179;SDS011;3631;42.152;24.756;2023-08-31T09:14:18;8.02;;;2.33;;
7179;SDS011;3631;42.152;24.756;2023-08-31T09:16:49;3.30;;;2.78;;
7179;SDS011;3631;42.152;24.756;2023-08-31T09:19:21;5.60;;;2.05;;
7179;SDS011;3631;42.152;24.756;2023-08-31T09:21:56;4.72;;;1.98;;
7179;SDS011;3631;42.152;24.756;2023-08-31T09:24:30;3.03;;;2.20;;
7179;SDS011;3631;42.152;24.756;2023-08-31T09:27:43;3.70;;;2.60;;
7179;SDS011;3631;42.152;24.756;2023-08-31T09:30:29;3.60;;;2.25;;
7179;SDS011;3631;42.152;24.756;2023-08-31T09:33:15;2.97;;;2.45;;
7179;SDS011;3631;42.152;24.756;2023-08-31T09:36:07;4.68;;;2.50;;
7179;SDS011;3631;42.152;24.756;2023-08-31T09:39:02;3.47;;;2.85;;
7179;SDS011;3631;42.152;24.756;2023-08-31T09:41:31;3.08;;;2.47;;
7179;SDS011;3631;42.152;24.756;2023-08-31T09:46:52;2.60;;;2.40;;
7179;SDS011;3631;42.152;24.756;2023-08-31T09:49:23;3.08;;;2.17;;
7179;SDS011;3631;42.152;24.756;2023-08-31T09:51:57;5.22;;;2.15;;
7179;SDS011;3631;42.152;24.756;2023-08-31T09:54:35;1.92;;;1.80;;
7179;SDS011;3631;42.152;24.756;2023-08-31T09:57:05;3.00;;;2.00;;
7179;SDS011;3631;42.152;24.756;2023-08-31T09:59:38;6.25;;;2.97;;
7179;SDS011;3631;42.152;24.756;2023-08-31T10:02:09;2.70;;;2.33;;
7179;SDS011;3631;42.152;24.756;2023-08-31T10:04:43;12.32;;;3.63;;
7179;SDS011;3631;42.152;24.756;2023-08-31T10:07:14;7.35;;;4.15;;
7179;SDS011;3631;42.152;24.756;2023-08-31T10:09:44;4.50;;;3.47;;
7179;SDS011;3631;42.152;24.756;2023-08-31T10:12:15;3.28;;;3.03;;
7179;SDS011;3631;42.152;24.756;2023-08-31T10:14:50;5.32;;;2.78;;
7179;SDS011;3631;42.152;24.756;2023-08-31T10:17:20;4.22;;;2.60;;
7179;SDS011;3631;42.152;24.756;2023-08-31T10:19:50;3.03;;;2.80;;
7179;SDS011;3631;42.152;24.756;2023-08-31T10:22:23;4.72;;;3.03;;
7179;SDS011;3631;42.152;24.756;2023-08-31T10:24:59;3.92;;;2.70;;
7179;SDS011;3631;42.152;24.756;2023-08-31T10:27:37;9.95;;;3.28;;
7179;SDS011;3631;42.152;24.756;2023-08-31T10:30:19;3.25;;;2.65;;
7179;SDS011;3631;42.152;24.756;2023-08-31T10:35:55;6.60;;;2.80;;
7179;SDS011;3631;42.152;24.756;2023-08-31T10:38:27;9.43;;;3.00;;
7179;SDS011;3631;42.152;24.756;2023-08-31T10:41:03;6.43;;;2.63;;
7179;SDS011;3631;42.152;24.756;2023-08-31T10:43:47;4.75;;;2.53;;
7179;SDS011;3631;42.152;24.756;2023-08-31T10:46:24;3.97;;;2.60;;
7179;SDS011;3631;42.152;24.756;2023-08-31T10:48:58;4.50;;;3.30;;
7179;SDS011;3631;42.152;24.756;2023-08-31T10:51:30;7.00;;;2.70;;
7179;SDS011;3631;42.152;24.756;2023-08-31T10:54:07;4.57;;;2.60;;
7179;SDS011;3631;42.152;24.756;2023-08-31T10:56:52;4.32;;;2.90;;
7179;SDS011;3631;42.152;24.756;2023-08-31T10:59:22;4.85;;;2.72;;
7179;SDS011;3631;42.152;24.756;2023-08-31T11:01:55;3.70;;;3.05;;
7179;SDS011;3631;42.152;24.756;2023-08-31T11:04:29;2.95;;;2.70;;
7179;SDS011;3631;42.152;24.756;2023-08-31T11:07:19;3.28;;;2.90;;
7179;SDS011;3631;42.152;24.756;2023-08-31T11:09:52;4.80;;;3.15;;
7179;SDS011;3631;42.152;24.756;2023-08-31T11:12:34;5.45;;;2.67;;
7179;SDS011;3631;42.152;24.756;2023-08-31T11:15:05;6.93;;;2.65;;
7179;SDS011;3631;42.152;24.756;2023-08-31T11:17:39;6.22;;;2.90;;
7179;SDS011;3631;42.152;24.756;2023-08-31T11:20:12;5.50;;;2.45;;
7179;SDS011;3631;42.152;24.756;2023-08-31T11:22:45;7.57;;;2.50;;
7179;SDS011;3631;42.152;24.756;2023-08-31T11:25:17;5.80;;;2.40;;
7179;SDS011;3631;42.152;24.756;2023-08-31T11:27:53;7.38;;;3.10;;
7179;SDS011;3631;42.152;24.756;2023-08-31T11:30:21;3.20;;;3.00;;
7179;SDS011;3631;42.152;24.756;2023-08-31T11:32:51;9.63;;;4.57;;
7179;SDS011;3631;42.152;24.756;2023-08-31T11:35:22;8.02;;;2.95;;
7179;SDS011;3631;42.152;24.756;2023-08-31T11:37:55;7.35;;;2.55;;
7179;SDS011;3631;42.152;24.756;2023-08-31T11:40:26;5.07;;;2.65;;
7179;SDS011;3631;42.152;24.756;2023-08-31T11:42:56;4.03;;;2.63;;
7179;SDS011;3631;42.152;24.756;2023-08-31T11:45:25;4.72;;;2.75;;
7179;SDS011;3631;42.152;24.756;2023-08-31T11:47:59;4.85;;;2.55;;
7179;SDS011;3631;42.152;24.756;2023-08-31T11:50:30;8.18;;;2.90;;
7179;SDS011;3631;42.152;24.756;2023-08-31T11:53:02;4.72;;;3.90;;
7179;SDS011;3631;42.152;24.756;2023-08-31T11:55:33;4.05;;;3.00;;
7179;SDS011;3631;42.152;24.756;2023-08-31T11:58:02;3.22;;;2.83;;
7179;SDS011;3631;42.152;24.756;2023-08-31T12:00:32;5.03;;;2.92;;
7179;SDS011;3631;42.152;24.756;2023-08-31T12:03:03;5.40;;;3.65;;
7179;SDS011;3631;42.152;24.756;2023-08-31T12:05:44;5.10;;;3.20;;
7179;SDS011;3631;42.152;24.756;2023-08-31T12:08:13;3.28;;;3.08;;
7179;SDS011;3631;42.152;24.756;2023-08-31T12:10:45;2.90;;;2.63;;
7179;SDS011;3631;42.152;24.756;2023-08-31T12:13:17;5.18;;;2.95;;
7179;SDS011;3631;42.152;24.756;2023-08-31T12:15:54;3.15;;;2.85;;
7179;SDS011;3631;42.152;24.756;2023-08-31T12:18:24;3.90;;;2.60;;
7179;SDS011;3631;42.152;24.756;2023-08-31T12:20:58;3.42;;;2.60;;
7179;SDS011;3631;42.152;24.756;2023-08-31T12:23:29;7.35;;;3.53;;
7179;SDS011;3631;42.152;24.756;2023-08-31T12:25:58;3.08;;;2.88;;
7179;SDS011;3631;42.152;24.756;2023-08-31T12:28:30;6.22;;;3.00;;
7179;SDS011;3631;42.152;24.756;2023-08-31T12:31:04;3.83;;;3.05;;
7179;SDS011;3631;42.152;24.756;2023-08-31T12:33:36;4.80;;;3.22;;
7179;SDS011;3631;42.152;24.756;2023-08-31T12:36:04;7.07;;;3.30;;
7179;SDS011;3631;42.152;24.756;2023-08-31T12:38:33;4.78;;;3.35;;
7179;SDS011;3631;42.152;24.756;2023-08-31T12:41:06;5.90;;;3.50;;
7179;SDS011;3631;42.152;24.756;2023-08-31T12:43:35;9.63;;;6.35;;
7179;SDS011;3631;42.152;24.756;2023-08-31T12:46:04;3.20;;;2.90;;
7179;SDS011;3631;42.152;24.756;2023-08-31T12:48:37;5.03;;;3.80;;
7179;SDS011;3631;42.152;24.756;2023-08-31T12:51:12;5.15;;;3.55;;
7179;SDS011;3631;42.152;24.756;2023-08-31T12:53:45;5.78;;;3.72;;
7179;SDS011;3631;42.152;24.756;2023-08-31T12:56:22;6.53;;;3.17;;
7179;SDS011;3631;42.152;24.756;2023-08-31T12:58:53;6.65;;;3.00;;
7179;SDS011;3631;42.152;24.756;2023-08-31T13:01:33;8.07;;;3.47;;
7179;SDS011;3631;42.152;24.756;2023-08-31T13:04:10;3.80;;;3.28;;
7179;SDS011;3631;42.152;24.756;2023-08-31T13:06:49;4.80;;;2.60;;
7179;SDS011;3631;42.152;24.756;2023-08-31T13:09:24;3.92;;;2.85;;
7179;SDS011;3631;42.152;24.756;2023-08-31T13:11:58;7.75;;;3.10;;
7179;SDS011;3631;42.152;24.756;2023-08-31T13:14:32;7.85;;;3.30;;
7179;SDS011;3631;42.152;24.756;2023-08-31T13:20:30;3.58;;;3.15;;
7179;SDS011;3631;42.152;24.756;2023-08-31T13:23:04;3.33;;;2.80;;
7179;SDS011;3631;42.152;24.756;2023-08-31T13:25:36;5.88;;;3.42;;
7179;SDS011;3631;42.152;24.756;2023-08-31T13:28:10;3.30;;;3.00;;
7179;SDS011;3631;42.152;24.756;2023-08-31T13:30:44;2.97;;;2.70;;
7179;SDS011;3631;42.152;24.756;2023-08-31T13:33:24;3.10;;;2.90;;
7179;SDS011;3631;42.152;24.756;2023-08-31T13:36:04;5.35;;;3.45;;
7179;SDS011;3631;42.152;24.756;2023-08-31T13:38:45;3.67;;;3.40;;
7179;SDS011;3631;42.152;24.756;2023-08-31T13:41:24;4.35;;;3.10;;
7179;SDS011;3631;42.152;24.756;2023-08-31T13:44:00;4.95;;;3.28;;
7179;SDS011;3631;42.152;24.756;2023-08-31T13:46:38;3.30;;;3.00;;
7179;SDS011;3631;42.152;24.756;2023-08-31T13:49:13;5.88;;;3.38;;
7179;SDS011;3631;42.152;24.756;2023-08-31T13:51:49;3.95;;;3.55;;
7179;SDS011;3631;42.152;24.756;2023-08-31T13:54:23;5.85;;;3.20;;
7179;SDS011;3631;42.152;24.756;2023-08-31T13:56:52;6.55;;;3.63;;
7179;SDS011;3631;42.152;24.756;2023-08-31T13:59:21;5.43;;;3.35;;
7179;SDS011;3631;42.152;24.756;2023-08-31T14:01:57;3.00;;;2.80;;
7179;SDS011;3631;42.152;24.756;2023-08-31T14:04:35;3.70;;;2.90;;
7179;SDS011;3631;42.152;24.756;2023-08-31T14:07:12;4.20;;;3.50;;
7179;SDS011;3631;42.152;24.756;2023-08-31T14:09:46;5.03;;;4.22;;
7179;SDS011;3631;42.152;24.756;2023-08-31T14:12:23;7.75;;;3.88;;
7179;SDS011;3631;42.152;24.756;2023-08-31T14:14:55;7.88;;;4.28;;
7179;SDS011;3631;42.152;24.756;2023-08-31T14:17:33;5.53;;;5.00;;
7179;SDS011;3631;42.152;24.756;2023-08-31T14:20:08;16.23;;;11.98;;
7179;SDS011;3631;42.152;24.756;2023-08-31T14:22:45;7.03;;;4.55;;
7179;SDS011;3631;42.152;24.756;2023-08-31T14:25:17;5.80;;;3.83;;
7179;SDS011;3631;42.152;24.756;2023-08-31T14:27:54;10.45;;;5.90;;
7179;SDS011;3631;42.152;24.756;2023-08-31T14:30:24;5.75;;;4.93;;
7179;SDS011;3631;42.152;24.756;2023-08-31T14:32:57;5.22;;;4.53;;
7179;SDS011;3631;42.152;24.756;2023-08-31T14:35:30;5.22;;;4.65;;
7179;SDS011;3631;42.152;24.756;2023-08-31T14:38:07;6.15;;;5.63;;
7179;SDS011;3631;42.152;24.756;2023-08-31T14:40:39;7.45;;;6.75;;
7179;SDS011;3631;42.152;24.756;2023-08-31T14:43:09;8.77;;;4.45;;
7179;SDS011;3631;42.152;24.756;2023-08-31T14:45:38;8.68;;;3.63;;
7179;SDS011;3631;42.152;24.756;2023-08-31T14:48:06;4.57;;;4.10;;
7179;SDS011;3631;42.152;24.756;2023-08-31T14:50:35;10.13;;;4.30;;
7179;SDS011;3631;42.152;24.756;2023-08-31T14:53:11;6.30;;;3.75;;
7179;SDS011;3631;42.152;24.756;2023-08-31T14:55:48;14.20;;;9.55;;
7179;SDS011;3631;42.152;24.756;2023-08-31T14:58:20;9.15;;;6.03;;
7179;SDS011;3631;42.152;24.756;2023-08-31T15:00:50;11.27;;;9.70;;
7179;SDS011;3631;42.152;24.756;2023-08-31T15:03:18;9.65;;;6.13;;
7179;SDS011;3631;42.152;24.756;2023-08-31T15:05:49;9.05;;;6.57;;
7179;SDS011;3631;42.152;24.756;2023-08-31T15:08:35;11.02;;;5.70;;
7179;SDS011;3631;42.152;24.756;2023-08-31T15:11:09;8.32;;;5.00;;
7179;SDS011;3631;42.152;24.756;2023-08-31T15:13:41;9.73;;;7.75;;
7179;SDS011;3631;42.152;24.756;2023-08-31T15:16:14;9.35;;;5.82;;
7179;SDS011;3631;42.152;24.756;2023-08-31T15:18:46;11.35;;;8.32;;
7179;SDS011;3631;42.152;24.756;2023-08-31T15:21:19;16.85;;;10.63;;
7179;SDS011;3631;42.152;24.756;2023-08-31T15:23:49;9.93;;;7.93;;
7179;SDS011;3631;42.152;24.756;2023-08-31T15:26:21;11.23;;;6.25;;
7179;SDS011;3631;42.152;24.756;2023-08-31T15:28:52;17.98;;;12.05;;
7179;SDS011;3631;42.152;24.756;2023-08-31T15:31:22;13.13;;;10.00;;
7179;SDS011;3631;42.152;24.756;2023-08-31T15:33:51;8.18;;;6.38;;
7179;SDS011;3631;42.152;24.756;2023-08-31T15:36:25;6.30;;;5.15;;
7179;SDS011;3631;42.152;24.756;2023-08-31T15:39:05;10.05;;;9.15;;
7179;SDS011;3631;42.152;24.756;2023-08-31T15:41:50;10.02;;;8.13;;
7179;SDS011;3631;42.152;24.756;2023-08-31T15:44:23;6.18;;;5.68;;
7179;SDS011;3631;42.152;24.756;2023-08-31T15:46:58;8.60;;;6.20;;
7179;SDS011;3631;42.152;24.756;2023-08-31T15:49:38;6.68;;;4.65;;
7179;SDS011;3631;42.152;24.756;2023-08-31T15:52:17;8.32;;;5.70;;
7179;SDS011;3631;42.152;24.756;2023-08-31T15:54:53;7.53;;;5.70;;
7179;SDS011;3631;42.152;24.756;2023-08-31T15:57:25;5.68;;;5.18;;
7179;SDS011;3631;42.152;24.756;2023-08-31T16:00:05;6.72;;;6.10;;
7179;SDS011;3631;42.152;24.756;2023-08-31T16:02:44;6.30;;;5.72;;
7179;SDS011;3631;42.152;24.756;2023-08-31T16:05:23;6.88;;;5.25;;
7179;SDS011;3631;42.152;24.756;2023-08-31T16:08:01;6.07;;;4.65;;
7179;SDS011;3631;42.152;24.756;2023-08-31T16:10:39;6.90;;;5.38;;
7179;SDS011;3631;42.152;24.756;2023-08-31T16:13:22;5.95;;;4.47;;
7179;SDS011;3631;42.152;24.756;2023-08-31T16:16:07;5.00;;;4.50;;
7179;SDS011;3631;42.152;24.756;2023-08-31T16:18:52;4.80;;;4.18;;
7179;SDS011;3631;42.152;24.756;2023-08-31T16:21:28;8.07;;;6.10;;
7179;SDS011;3631;42.152;24.756;2023-08-31T16:24:10;13.43;;;5.75;;
7179;SDS011;3631;42.152;24.756;2023-08-31T16:26:54;6.47;;;4.95;;
7179;SDS011;3631;42.152;24.756;2023-08-31T16:29:37;8.52;;;5.07;;
7179;SDS011;3631;42.152;24.756;2023-08-31T16:32:15;8.77;;;4.93;;
7179;SDS011;3631;42.152;24.756;2023-08-31T16:34:51;4.90;;;4.50;;
7179;SDS011;3631;42.152;24.756;2023-08-31T16:37:41;5.57;;;5.07;;
7179;SDS011;3631;42.152;24.756;2023-08-31T16:40:37;8.35;;;5.15;;
7179;SDS011;3631;42.152;24.756;2023-08-31T16:43:41;7.10;;;4.93;;
7179;SDS011;3631;42.152;24.756;2023-08-31T16:46:43;8.80;;;5.65;;
7179;SDS011;3631;42.152;24.756;2023-08-31T16:49:18;6.38;;;5.03;;
7179;SDS011;3631;42.152;24.756;2023-08-31T16:52:23;9.95;;;6.22;;
7179;SDS011;3631;42.152;24.756;2023-08-31T16:55:07;8.52;;;5.55;;
7179;SDS011;3631;42.152;24.756;2023-08-31T16:58:14;6.30;;;5.68;;
7179;SDS011;3631;42.152;24.756;2023-08-31T17:01:10;11.68;;;5.63;;
7179;SDS011;3631;42.152;24.756;2023-08-31T17:04:00;9.55;;;6.05;;
7179;SDS011;3631;42.152;24.756;2023-08-31T17:06:37;5.90;;;5.35;;
7179;SDS011;3631;42.152;24.756;2023-08-31T17:09:35;5.93;;;5.43;;
7179;SDS011;3631;42.152;24.756;2023-08-31T17:12:33;8.27;;;5.85;;
7179;SDS011;3631;42.152;24.756;2023-08-31T17:15:31;8.93;;;5.82;;
7179;SDS011;3631;42.152;24.756;2023-08-31T17:18:34;10.90;;;6.63;;
7179;SDS011;3631;42.152;24.756;2023-08-31T17:21:09;6.10;;;5.40;;
7179;SDS011;3631;42.152;24.756;2023-08-31T17:23:55;5.82;;;5.30;;